Brisben, New York
Current Conditions -  °F | °C
As of 11:53 PM on Friday 21 Nov 2014 (Local Time) from KBGM Reporting Station
Clear Clear  
Wind Chill:   Ceiling: Unl
Heat Index: 18°   Visibility: 10mi
Dew Point: 10°   Wind: 7mph
Humidity: 71%   Direction: 230°SW
Pressure: 30.37"   Gusts: NA
Location:  42.4446°N, 75.6311°W
Report Text: KBGM 220453Z AUTO 23006KT 10SM CLR M08/M12 A3037 RMK AO2 SLP310 T10781122 410281089
Loading
Personal Weather Stations






























Interactive Weather Map New forecast layout! Learn more

10-Day Weather Forecast

Advertisements
Track Severe Weather on mobile